Time;durP1;ratioP1;P1;durP2;ratioP2;P2;SDS_P1;SDS_P2;PMS_P1;PMS_P2;Temp;Humidity;BMP_temperature;BMP_pressure;BME280_temperature;BME280_humidity;BME280_pressure;Samples;Min_cycle;Max_cycle;Signal;HPM_P1;HPM_P2
2022/03/18 00:00:33;;;;;;;;;;;;;;;22.04;40.40;96682.47;2081440;28;1253;-58
2022/03/18 00:01:35;;;;;;;;;;;;;;;22.04;40.40;96692.34;2075349;28;1624;-58
2022/03/18 00:02:39;;;;;;;;;;;;;;;22.05;40.49;96694.81;2081224;28;1112;-58
2022/03/18 00:03:40;;;;;;;;;;;;;;;22.08;40.42;96686.44;2080490;28;1549;-59
2022/03/18 00:04:42;;;;;;;;;;;;;;;22.08;40.60;96683.78;2080973;28;1910;-58
2022/03/18 00:05:43;;;;;;;;;;;;;;;22.09;40.43;96684.63;2081060;28;1060;-58
2022/03/18 00:06:45;;;;;;;;;;;;;;;22.13;40.20;96681.41;2080332;28;1534;-58
2022/03/18 00:07:47;;;;;;;;;;;;;;;22.12;40.17;96679.75;2080387;28;1563;-59
2022/03/18 00:08:49;;;;;;;;;;;;;;;22.11;40.35;96691.44;2080698;28;2110;-58
2022/03/18 00:09:50;;;;;;;;;;;;;;;22.11;40.33;96693.28;2080500;28;1657;-58
2022/03/18 00:10:55;;;;;;;;;;;;;;;22.08;40.49;96689.13;2081056;28;1042;-58
2022/03/18 00:11:57;;;;;;;;;;;;;;;22.11;40.29;96691.44;2081016;28;1669;-59
2022/03/18 00:12:59;;;;;;;;;;;;;;;22.09;40.40;96684.63;2076471;28;1591;-58
2022/03/18 00:14:02;;;;;;;;;;;;;;;22.08;40.60;96691.78;2080507;28;1409;-59
2022/03/18 00:15:05;;;;;;;;;;;;;;;22.06;40.54;96691.16;2081157;28;1151;-59
2022/03/18 00:16:07;;;;;;;;;;;;;;;22.05;40.57;96689.47;2079763;28;1680;-58
2022/03/18 00:17:10;;;;;;;;;;;;;;;22.06;40.32;96691.16;2079820;28;1503;-59
2022/03/18 00:18:12;;;;;;;;;;;;;;;22.08;40.74;96696.31;2081133;28;1080;-59
2022/03/18 00:19:13;;;;;;;;;;;;;;;22.07;40.65;96692.81;2080512;28;1653;-59
2022/03/18 00:20:15;;;;;;;;;;;;;;;22.09;40.43;96696.16;2081076;28;1773;-59
2022/03/18 00:21:17;;;;;;;;;;;;;;;22.09;40.44;96693.47;2081263;28;1080;-59
2022/03/18 00:22:18;;;;;;;;;;;;;;;22.10;40.35;96692.47;2079388;28;1498;-59
2022/03/18 00:23:20;;;;;;;;;;;;;;;22.11;40.65;96695.97;2075408;28;1683;-59
2022/03/18 00:24:22;;;;;;;;;;;;;;;22.10;40.42;96695.13;2080148;28;1469;-59
2022/03/18 00:25:23;;;;;;;;;;;;;;;22.11;40.49;96702.13;2078967;28;1914;-59
2022/03/18 00:26:25;;;;;;;;;;;;;;;22.11;40.71;96703.97;2080901;28;1352;-58
2022/03/18 00:27:27;;;;;;;;;;;;;;;22.11;40.56;96696.78;2079614;28;1563;-59
2022/03/18 00:28:29;;;;;;;;;;;;;;;22.12;40.43;96697.66;2080514;28;1044;-59
2022/03/18 00:29:31;;;;;;;;;;;;;;;22.12;40.62;96695.78;2079099;28;1476;-59
2022/03/18 00:30:33;;;;;;;;;;;;;;;22.13;40.82;96708.16;2080441;28;1496;-59
2022/03/18 00:31:34;;;;;;;;;;;;;;;22.14;40.68;96701.81;2080504;28;1281;-59
2022/03/18 00:32:39;;;;;;;;;;;;;;;22.14;40.61;96699.13;2079746;28;1506;-59
2022/03/18 00:34:02;;;;;;;;;;;;;;;22.12;40.86;96700.31;2072884;28;2391;-58
2022/03/18 00:35:03;;;;;;;;;;;;;;;22.11;40.84;96706.66;2069579;28;1627;-60
2022/03/18 00:36:05;;;;;;;;;;;;;;;22.12;40.89;96705.66;2080824;28;1064;-59
2022/03/18 00:37:07;;;;;;;;;;;;;;;22.11;40.58;96704.81;2079445;28;1799;-60
2022/03/18 00:38:08;;;;;;;;;;;;;;;22.13;40.70;96702.81;2080402;28;1956;-60
2022/03/18 00:39:10;;;;;;;;;;;;;;;22.14;40.49;96704.47;2080980;28;1281;-59
2022/03/18 00:40:12;;;;;;;;;;;;;;;22.13;40.68;96704.66;2080675;28;1484;-62
2022/03/18 00:41:13;;;;;;;;;;;;;;;22.09;40.60;96712.19;2081068;28;1104;-64
2022/03/18 00:42:15;;;;;;;;;;;;;;;22.05;41.20;96710.03;2079976;28;1620;-61
2022/03/18 00:43:16;;;;;;;;;;;;;;;22.04;41.01;96708.38;2080390;28;1449;-62
2022/03/18 00:44:19;;;;;;;;;;;;;;;22.00;41.42;96713.22;2079817;28;1508;-61
2022/03/18 00:45:20;;;;;;;;;;;;;;;21.97;41.69;96705.53;2076674;28;2038;-61
2022/03/18 00:46:23;;;;;;;;;;;;;;;21.93;41.93;96705.06;2079933;28;1520;-60
2022/03/18 00:52:45;;;;;;;;;;;;;;;21.89;42.10;96714.44;2079593;28;1537;-60
2022/03/18 00:53:47;;;;;;;;;;;;;;;21.91;41.92;96724.94;2079809;28;1637;-59
2022/03/18 00:54:48;;;;;;;;;;;;;;;21.90;41.96;96712.59;2079674;28;2093;-62
2022/03/18 00:55:50;;;;;;;;;;;;;;;21.91;41.89;96714.25;2080432;28;1616;-60
2022/03/18 00:56:51;;;;;;;;;;;;;;;21.90;41.93;96716.09;2075646;28;1548;-60
2022/03/18 00:57:53;;;;;;;;;;;;;;;21.90;42.12;96717.94;2087826;28;1538;-60
2022/03/18 00:58:55;;;;;;;;;;;;;;;21.90;42.22;96725.94;2087534;28;1689;-61
2022/03/18 00:59:56;;;;;;;;;;;;;;;21.90;41.82;96717.94;2080968;28;1034;-60
2022/03/18 01:00:58;;;;;;;;;;;;;;;21.91;41.81;96714.25;2079874;28;1688;-61
2022/03/18 01:01:59;;;;;;;;;;;;;;;21.90;42.05;96718.75;2080016;28;1529;-60
2022/03/18 01:03:01;;;;;;;;;;;;;;;21.88;41.90;96717.25;2088307;28;1362;-60
2022/03/18 01:04:04;;;;;;;;;;;;;;;21.95;41.88;96720.94;2087397;28;1498;-60
2022/03/18 01:05:06;;;;;;;;;;;;;;;21.98;42.04;96723.25;2080551;28;1971;-60
2022/03/18 01:06:08;;;;;;;;;;;;;;;22.02;42.05;96724.56;2081008;28;1063;-60
2022/03/18 01:07:09;;;;;;;;;;;;;;;22.02;41.78;96725.38;2079277;28;1511;-61
2022/03/18 01:08:11;;;;;;;;;;;;;;;22.03;41.77;96728.91;2077060;28;2129;-60
2022/03/18 01:09:13;;;;;;;;;;;;;;;22.05;41.81;96726.88;2079067;28;1666;-60
2022/03/18 01:10:14;;;;;;;;;;;;;;;22.05;42.00;96736.75;2079722;28;1499;-59
2022/03/18 01:11:16;;;;;;;;;;;;;;;22.07;41.83;96730.22;2081864;28;1663;-60
2022/03/18 01:12:18;;;;;;;;;;;;;;;22.03;41.96;96734.25;2082481;28;1280;-60
2022/03/18 01:13:20;;;;;;;;;;;;;;;21.99;41.91;96738.28;2081784;28;1610;-60
2022/03/18 01:14:22;;;;;;;;;;;;;;;21.96;42.29;96733.28;2082359;28;974;-59
2022/03/18 01:15:23;;;;;;;;;;;;;;;21.93;42.31;96730.94;2081548;28;1663;-61
2022/03/18 01:16:25;;;;;;;;;;;;;;;21.90;42.34;96725.94;2082833;28;1018;-59
2022/03/18 01:17:27;;;;;;;;;;;;;;;21.88;42.69;96730.63;2081456;28;1598;-60
2022/03/18 01:18:28;;;;;;;;;;;;;;;21.89;42.33;96727.78;2077607;28;1447;-60
2022/03/18 01:19:30;;;;;;;;;;;;;;;21.88;42.32;96726.09;2082279;28;1487;-60
2022/03/18 01:20:31;;;;;;;;;;;;;;;21.87;42.51;96724.44;2082037;28;1571;-60
2022/03/18 01:21:33;;;;;;;;;;;;;;;21.86;42.36;96722.78;2082441;28;1103;-60
2022/03/18 01:22:36;;;;;;;;;;;;;;;21.86;42.53;96729.94;2081056;28;1523;-60
2022/03/18 01:23:38;;;;;;;;;;;;;;;21.86;42.61;96725.47;2082638;28;1211;-59
2022/03/18 01:24:40;;;;;;;;;;;;;;;21.86;42.35;96724.59;2080693;28;1519;-59
2022/03/18 01:25:42;;;;;;;;;;;;;;;21.87;42.35;96724.44;2074288;28;1910;-60
2022/03/18 01:26:43;;;;;;;;;;;;;;;21.88;42.36;96727.94;2076575;28;1455;-60
2022/03/18 01:27:45;;;;;;;;;;;;;;;21.88;42.34;96730.63;2081471;28;1612;-61
2022/03/18 01:28:46;;;;;;;;;;;;;;;21.88;42.29;96726.09;2081659;28;1753;-61
2022/03/18 01:29:48;;;;;;;;;;;;;;;21.87;42.19;96723.63;2077722;28;1137;-61
2022/03/18 01:30:49;;;;;;;;;;;;;;;21.86;42.50;96720.13;2081491;28;1699;-61
2022/03/18 01:31:51;;;;;;;;;;;;;;;21.86;42.25;96716.59;2082660;28;1007;-61
2022/03/18 01:32:53;;;;;;;;;;;;;;;21.87;42.33;96723.63;2081745;28;1707;-61
2022/03/18 01:33:56;;;;;;;;;;;;;;;21.86;42.24;96725.47;2082382;28;1135;-61
2022/03/18 01:34:57;;;;;;;;;;;;;;;21.86;42.25;96720.13;2082016;28;1416;-59
2022/03/18 01:35:59;;;;;;;;;;;;;;;21.87;42.12;96724.44;2082332;28;1116;-57
2022/03/18 01:37:01;;;;;;;;;;;;;;;21.88;42.25;96722.59;2081401;28;1509;-58
2022/03/18 01:38:02;;;;;;;;;;;;;;;21.89;42.14;96726.97;2081293;28;1434;-58
2022/03/18 01:39:04;;;;;;;;;;;;;;;21.88;42.28;96723.44;2081105;28;1512;-58
2022/03/18 01:40:06;;;;;;;;;;;;;;;21.89;42.41;96714.44;2081553;28;1672;-59
2022/03/18 01:41:08;;;;;;;;;;;;;;;21.89;42.32;96713.59;2076428;28;1442;-60
2022/03/18 01:42:09;;;;;;;;;;;;;;;21.90;42.54;96720.59;2081770;28;1077;-59
2022/03/18 01:43:11;;;;;;;;;;;;;;;21.87;42.33;96718.28;2081619;28;1531;-58
2022/03/18 01:44:13;;;;;;;;;;;;;;;21.89;42.47;96718.94;2081762;28;1609;-59
2022/03/18 01:45:14;;;;;;;;;;;;;;;21.88;42.71;96714.59;2081968;28;1898;-61
2022/03/18 01:46:17;;;;;;;;;;;;;;;21.87;42.66;96723.63;2082154;28;1608;-62
2022/03/18 01:47:19;;;;;;;;;;;;;;;21.87;42.70;96724.44;2080712;28;1542;-62
2022/03/18 01:48:20;;;;;;;;;;;;;;;21.85;42.51;96723.78;2081666;28;1619;-60
2022/03/18 01:49:22;;;;;;;;;;;;;;;21.86;42.63;96729.94;2080604;28;1495;-60
2022/03/18 01:50:24;;;;;;;;;;;;;;;21.82;42.78;96720.63;2082005;28;1432;-60
2022/03/18 01:51:25;;;;;;;;;;;;;;;21.87;42.53;96727.13;2077852;28;1739;-61
2022/03/18 01:52:27;;;;;;;;;;;;;;;21.87;42.65;96727.13;2081180;28;1620;-61
2022/03/18 01:53:29;;;;;;;;;;;;;;;21.88;42.72;96733.28;2082055;28;1546;-61
2022/03/18 01:54:49;;;;;;;;;;;;;;;21.87;42.58;96723.63;2080542;28;1573;-61
2022/03/18 01:55:51;;;;;;;;;;;;;;;21.87;42.74;96735.13;2081855;28;1490;-61
2022/03/18 01:56:53;;;;;;;;;;;;;;;21.88;42.62;96730.63;2082375;28;1055;-60
2022/03/18 01:57:55;;;;;;;;;;;;;;;21.88;42.75;96727.94;2082228;28;1618;-61
2022/03/18 01:58:56;;;;;;;;;;;;;;;21.86;42.53;96728.13;2080403;28;1445;-61
2022/03/18 01:59:58;;;;;;;;;;;;;;;21.86;42.62;96730.81;2081457;28;1634;-60
2022/03/18 02:01:00;;;;;;;;;;;;;;;21.86;42.52;96728.13;2081733;28;1720;-60
2022/03/18 02:02:02;;;;;;;;;;;;;;;21.86;42.56;96729.94;2081645;28;1049;-61
2022/03/18 02:03:04;;;;;;;;;;;;;;;21.86;42.60;96729.94;2076851;28;1192;-61
2022/03/18 02:04:06;;;;;;;;;;;;;;;21.87;42.70;96735.13;2081452;28;1832;-59
2022/03/18 02:05:10;;;;;;;;;;;;;;;21.90;42.38;96740.13;2082259;28;1073;-58
2022/03/18 02:06:12;;;;;;;;;;;;;;;21.91;42.38;96740.97;2081964;28;2097;-60
2022/03/18 02:07:14;;;;;;;;;;;;;;;21.89;42.63;96737.66;2081183;28;1543;-58
2022/03/18 02:08:16;;;;;;;;;;;;;;;21.89;42.72;96737.66;2080202;28;1480;-58
2022/03/18 02:09:19;;;;;;;;;;;;;;;21.89;42.93;96737.66;2082136;28;1108;-59
2022/03/18 02:10:21;;;;;;;;;;;;;;;21.89;42.70;96734.97;2082275;28;1111;-58
2022/03/18 02:11:23;;;;;;;;;;;;;;;21.90;42.64;96742.81;2081599;28;1523;-58
2022/03/18 02:12:24;;;;;;;;;;;;;;;21.90;42.79;96734.78;2082209;28;1092;-59
2022/03/18 02:13:26;;;;;;;;;;;;;;;21.89;42.74;96735.81;2076398;28;1423;-59
2022/03/18 02:14:31;;;;;;;;;;;;;;;21.87;42.98;96745.81;2081244;28;1642;-60
2022/03/18 02:15:33;;;;;;;;;;;;;;;21.87;42.94;96745.00;2081579;28;1049;-60
2022/03/18 02:16:38;;;;;;;;;;;;;;;21.86;42.92;96738.81;2081479;28;1694;-61
2022/03/18 02:17:39;;;;;;;;;;;;;;;21.87;42.92;96734.31;2081961;28;1140;-59
2022/03/18 02:18:41;;;;;;;;;;;;;;;21.88;43.03;96736.78;2080252;28;1430;-58
2022/03/18 02:19:43;;;;;;;;;;;;;;;21.86;42.94;96738.81;2081370;28;1536;-59
2022/03/18 02:20:45;;;;;;;;;;;;;;;21.87;42.95;96739.66;2081349;28;1707;-57
2022/03/18 02:21:48;;;;;;;;;;;;;;;21.90;42.92;96736.63;2081073;28;1108;-58
2022/03/18 02:22:50;;;;;;;;;;;;;;;21.91;42.83;96731.09;2080145;28;1477;-58
2022/03/18 02:23:52;;;;;;;;;;;;;;;21.92;42.92;96735.47;2081446;28;1195;-60
2022/03/18 02:24:54;;;;;;;;;;;;;;;21.94;43.02;96735.28;2083276;28;1757;-58
2022/03/18 02:25:56;;;;;;;;;;;;;;;21.94;42.86;96740.63;2081883;28;1902;-58
2022/03/18 02:26:57;;;;;;;;;;;;;;;21.95;42.97;96734.28;2082033;28;1107;-57
2022/03/18 02:28:03;;;;;;;;;;;;;;;21.95;43.09;96736.97;2080884;28;1478;-56
2022/03/18 02:29:06;;;;;;;;;;;;;;;21.95;43.13;96736.97;2080301;28;1615;-60
2022/03/18 02:30:08;;;;;;;;;;;;;;;21.95;43.07;96732.44;2081745;28;1656;-60
2022/03/18 02:31:10;;;;;;;;;;;;;;;21.94;43.01;96733.47;2082138;28;1154;-57
2022/03/18 02:32:13;;;;;;;;;;;;;;;21.96;42.93;96738.63;2080237;28;1807;-58
2022/03/18 02:33:14;;;;;;;;;;;;;;;21.95;43.02;96744.97;2081020;28;2159;-62
2022/03/18 02:34:16;;;;;;;;;;;;;;;21.99;42.80;96743.63;2081557;28;1556;-59
2022/03/18 02:35:18;;;;;;;;;;;;;;;22.02;42.89;96740.59;2080768;28;1542;-60
2022/03/18 02:36:19;;;;;;;;;;;;;;;22.03;42.78;96742.28;2078193;28;1634;-59
2022/03/18 02:37:21;;;;;;;;;;;;;;;22.04;42.64;96743.94;2080324;28;1479;-59
2022/03/18 02:38:23;;;;;;;;;;;;;;;22.05;42.71;96748.28;2081324;28;1736;-59
2022/03/18 02:39:25;;;;;;;;;;;;;;;22.06;42.59;96749.09;2080647;28;1541;-61
2022/03/18 02:40:27;;;;;;;;;;;;;;;22.08;42.75;96747.91;2082218;28;1071;-61
2022/03/18 02:41:29;;;;;;;;;;;;;;;22.08;42.68;96741.75;2081224;28;1944;-61
2022/03/18 02:42:31;;;;;;;;;;;;;;;22.07;42.53;96756.13;2082035;28;1954;-61
2022/03/18 02:43:32;;;;;;;;;;;;;;;22.04;42.77;96751.97;2080111;28;1561;-61
2022/03/18 02:44:34;;;;;;;;;;;;;;;22.04;42.63;96751.97;2081182;28;1660;-61
2022/03/18 02:45:36;;;;;;;;;;;;;;;22.03;42.60;96750.31;2089645;28;1038;-61
2022/03/18 02:46:37;;;;;;;;;;;;;;;22.04;42.87;96753.81;2083916;28;1906;-61
2022/03/18 02:47:39;;;;;;;;;;;;;;;22.01;42.83;96754.97;2081626;28;1264;-61
2022/03/18 02:48:41;;;;;;;;;;;;;;;22.01;42.58;96757.66;2080279;28;1525;-61
2022/03/18 02:49:42;;;;;;;;;;;;;;;22.01;42.78;96757.66;2078846;28;2011;-61
2022/03/18 02:50:44;;;;;;;;;;;;;;;21.99;42.85;96759.66;2082033;28;1319;-61
2022/03/18 02:51:46;;;;;;;;;;;;;;;21.98;42.58;96758.00;2081551;28;1028;-61
2022/03/18 02:52:47;;;;;;;;;;;;;;;22.01;42.51;96763.81;2079751;28;1530;-61
2022/03/18 02:53:51;;;;;;;;;;;;;;;22.05;42.49;96766.97;2081637;28;1247;-61
2022/03/18 02:54:53;;;;;;;;;;;;;;;22.04;42.50;96767.16;2081493;28;1533;-61
2022/03/18 02:55:55;;;;;;;;;;;;;;;22.08;42.21;96765.81;2080895;28;1488;-61
2022/03/18 02:56:56;;;;;;;;;;;;;;;22.07;42.36;96770.31;2081145;28;1612;-60
2022/03/18 02:57:58;;;;;;;;;;;;;;;22.08;42.23;96766.63;2076821;28;2141;-61
2022/03/18 02:59:00;;;;;;;;;;;;;;;22.09;42.38;96775.50;2079916;28;1466;-60
2022/03/18 03:00:16;;;;;;;;;;;;;;;22.11;42.00;96776.16;2081004;28;1928;-57
2022/03/18 03:01:17;;;;;;;;;;;;;;;22.11;41.97;96785.00;2073701;28;1095;-58
2022/03/18 03:02:19;;;;;;;;;;;;;;;22.10;41.98;96777.16;2073748;28;1585;-58
2022/03/18 03:03:21;;;;;;;;;;;;;;;22.07;41.88;96783.69;2081549;28;1733;-58
2022/03/18 03:04:23;;;;;;;;;;;;;;;22.04;41.85;96777.84;2081536;28;1718;-58
2022/03/18 03:08:12;;;;;;;;;;;;;;;22.05;41.92;96782.19;2071838;28;1631;-58
2022/03/18 03:09:16;;;;;;;;;;;;;;;22.06;42.03;96792.72;2073726;28;1743;-58
2022/03/18 03:10:18;;;;;;;;;;;;;;;22.06;42.08;96797.22;2081416;28;1581;-58
2022/03/18 03:11:22;;;;;;;;;;;;;;;22.05;41.86;96795.56;2081826;28;1088;-58
2022/03/18 03:12:24;;;;;;;;;;;;;;;22.05;41.99;96800.91;2084103;28;1671;-58
2022/03/18 03:13:26;;;;;;;;;;;;;;;22.08;42.59;96801.38;2086766;28;1493;-59
2022/03/18 03:14:27;;;;;;;;;;;;;;;22.11;42.06;96795.69;2084280;28;1802;-59
2022/03/18 03:15:29;;;;;;;;;;;;;;;22.13;42.05;96796.34;2089865;28;1116;-59
2022/03/18 03:16:31;;;;;;;;;;;;;;;22.14;42.02;96797.19;2084764;28;1654;-59
2022/03/18 03:17:32;;;;;;;;;;;;;;;22.14;41.80;96790.03;2081773;28;1047;-59
2022/03/18 03:18:35;;;;;;;;;;;;;;;22.18;41.79;96790.53;2081225;28;1541;-60
2022/03/18 03:19:36;;;;;;;;;;;;;;;22.20;41.66;96799.22;2076444;28;1568;-59
2022/03/18 03:20:38;;;;;;;;;;;;;;;22.19;41.87;96792.19;2080829;28;1544;-59
2022/03/18 03:21:40;;;;;;;;;;;;;;;22.18;41.42;96796.72;2081239;28;1135;-59
2022/03/18 03:22:41;;;;;;;;;;;;;;;22.19;41.53;96789.53;2078960;28;1499;-59
2022/03/18 03:23:43;;;;;;;;;;;;;;;22.19;41.55;96793.03;2081585;28;1103;-59
2022/03/18 03:24:45;;;;;;;;;;;;;;;22.20;41.44;96796.56;2080883;28;1620;-59
2022/03/18 03:25:48;;;;;;;;;;;;;;;22.21;41.61;96800.88;2081671;28;1088;-59
2022/03/18 03:26:50;;;;;;;;;;;;;;;22.20;41.82;96793.88;2081047;28;1914;-60
2022/03/18 03:27:52;;;;;;;;;;;;;;;22.22;41.54;96802.53;2081344;28;1535;-60
2022/03/18 03:28:54;;;;;;;;;;;;;;;22.22;41.65;96797.19;2078605;28;1501;-59
2022/03/18 03:29:59;;;;;;;;;;;;;;;22.20;41.51;96797.38;2081563;28;1649;-59
2022/03/18 03:31:00;;;;;;;;;;;;;;;22.18;42.02;96796.72;2077232;28;1246;-60
2022/03/18 03:32:02;;;;;;;;;;;;;;;22.16;41.63;96804.03;2080916;28;1643;-60
2022/03/18 03:33:04;;;;;;;;;;;;;;;22.11;41.83;96806.38;2081454;28;1171;-59
2022/03/18 03:34:05;;;;;;;;;;;;;;;22.09;41.74;96807.59;2085224;28;1447;-60
2022/03/18 03:35:08;;;;;;;;;;;;;;;22.05;42.08;96806.25;2080735;28;1104;-58
2022/03/18 03:36:10;;;;;;;;;;;;;;;22.04;42.09;96809.94;2076034;28;1688;-60
2022/03/18 03:37:11;;;;;;;;;;;;;;;22.01;42.21;96811.94;2081906;28;1097;-60
2022/03/18 03:38:14;;;;;;;;;;;;;;;22.00;42.47;96812.94;2079326;28;1468;-59
2022/03/18 03:39:16;;;;;;;;;;;;;;;21.98;42.36;96811.44;2080080;28;1482;-59
2022/03/18 03:40:19;;;;;;;;;;;;;;;21.99;42.67;96813.94;2081373;28;2074;-60
2022/03/18 03:41:21;;;;;;;;;;;;;;;21.97;42.61;96815.97;2080699;28;1464;-60
2022/03/18 03:42:23;;;;;;;;;;;;;;;21.96;42.64;96813.44;2077241;28;1190;-59
2022/03/18 03:43:24;;;;;;;;;;;;;;;21.96;42.84;96816.94;2080044;28;1731;-58
2022/03/18 03:44:26;;;;;;;;;;;;;;;21.96;42.55;96808.94;2081623;28;1073;-60
2022/03/18 03:45:27;;;;;;;;;;;;;;;21.97;42.48;96812.44;2081071;28;1557;-60
2022/03/18 03:46:33;;;;;;;;;;;;;;;21.96;42.45;96810.78;2081357;28;1989;-58
2022/03/18 03:47:35;;;;;;;;;;;;;;;21.96;42.51;96818.78;2081195;28;2896;-60
2022/03/18 03:48:37;;;;;;;;;;;;;;;21.96;42.69;96808.94;2080913;28;1556;-59
2022/03/18 03:49:38;;;;;;;;;;;;;;;21.98;42.82;96822.13;2088737;28;1574;-59
2022/03/18 03:50:40;;;;;;;;;;;;;;;21.97;42.71;96825.78;2088578;28;1259;-60
2022/03/18 03:52:00;;;;;;;;;;;;;;;21.97;42.72;96825.78;2088254;28;1538;-60
2022/03/18 03:53:02;;;;;;;;;;;;;;;21.96;42.48;96829.47;2081144;28;1788;-60
2022/03/18 03:54:04;;;;;;;;;;;;;;;21.96;42.54;96826.81;2084208;28;1700;-60
2022/03/18 03:55:07;;;;;;;;;;;;;;;21.97;42.69;96820.44;2080950;28;1470;-59
2022/03/18 03:56:09;;;;;;;;;;;;;;;22.00;42.69;96828.97;2081399;28;1035;-59
2022/03/18 03:57:10;;;;;;;;;;;;;;;22.07;42.38;96826.44;2079895;28;1493;-59
2022/03/18 03:58:12;;;;;;;;;;;;;;;22.08;42.33;96833.47;2080876;28;1654;-60
2022/03/18 03:59:14;;;;;;;;;;;;;;;22.12;42.28;96833.97;2080832;28;1485;-60
2022/03/18 04:00:15;;;;;;;;;;;;;;;22.14;42.09;96831.94;2081133;28;1551;-60
2022/03/18 04:01:17;;;;;;;;;;;;;;;22.16;42.04;96827.25;2079429;28;1678;-59
2022/03/18 04:02:20;;;;;;;;;;;;;;;22.17;42.01;96832.50;2080982;28;1555;-61
2022/03/18 04:03:22;;;;;;;;;;;;;;;22.20;42.17;96836.66;2079655;28;1472;-59
2022/03/18 04:04:27;;;;;;;;;;;;;;;20.96;30.57;96829.59;2076552;28;1600;-60
2022/03/18 04:05:30;;;;;;;;;;;;;;;19.01;28.90;96836.19;2080966;28;1021;-64
2022/03/18 04:06:32;;;;;;;;;;;;;;;17.54;29.26;96836.88;2081767;28;1649;-64
2022/03/18 04:07:35;;;;;;;;;;;;;;;16.29;30.20;96839.19;2081230;28;1128;-63
2022/03/18 04:08:37;;;;;;;;;;;;;;;15.44;30.07;96842.88;2080103;28;1563;-64
2022/03/18 04:09:38;;;;;;;;;;;;;;;15.12;30.42;96837.63;2080256;28;1668;-64
2022/03/18 04:10:42;;;;;;;;;;;;;;;14.93;30.44;96848.84;2080864;28;1483;-65
2022/03/18 04:11:44;;;;;;;;;;;;;;;14.32;30.92;96845.84;2079275;28;1605;-63
2022/03/18 04:12:46;;;;;;;;;;;;;;;14.25;31.66;96849.91;2081013;28;1088;-64
2022/03/18 04:13:48;;;;;;;;;;;;;;;14.26;31.04;96856.84;2086516;28;1599;-64
2022/03/18 04:14:51;;;;;;;;;;;;;;;13.92;31.51;96855.06;2083259;28;1765;-65
2022/03/18 04:15:53;;;;;;;;;;;;;;;13.80;31.37;96850.72;2080847;28;1616;-64
2022/03/18 04:16:55;;;;;;;;;;;;;;;13.66;31.03;96859.69;2081143;28;1628;-59
2022/03/18 04:17:56;;;;;;;;;;;;;;;13.37;31.76;96861.03;2079628;28;1760;-62
2022/03/18 04:18:58;;;;;;;;;;;;;;;13.46;31.86;96857.72;2079558;28;1676;-61
2022/03/18 04:19:59;;;;;;;;;;;;;;;13.52;31.64;96857.28;2080362;28;1749;-64
2022/03/18 04:21:01;;;;;;;;;;;;;;;13.50;31.38;96856.53;2079570;28;1523;-64
2022/03/18 04:22:03;;;;;;;;;;;;;;;13.69;31.43;96864.75;2088680;28;1112;-64
2022/03/18 04:23:04;;;;;;;;;;;;;;;13.80;30.91;96868.34;2079066;28;1496;-62
2022/03/18 04:24:06;;;;;;;;;;;;;;;13.65;30.99;96858.00;2081388;28;1049;-64
2022/03/18 04:25:08;;;;;;;;;;;;;;;13.59;31.06;96865.56;2079526;28;1513;-64
2022/03/18 04:26:10;;;;;;;;;;;;;;;13.41;30.99;96860.72;2075720;28;1577;-63
2022/03/18 04:27:11;;;;;;;;;;;;;;;13.70;30.94;96857.66;2080506;28;1994;-65
2022/03/18 04:28:13;;;;;;;;;;;;;;;13.87;30.97;96864.28;2088220;28;1666;-64
2022/03/18 04:29:15;;;;;;;;;;;;;;;13.83;30.61;96868.09;2080265;28;1483;-63
2022/03/18 04:30:16;;;;;;;;;;;;;;;14.06;30.38;96869.81;2070812;28;1595;-64
2022/03/18 04:31:19;;;;;;;;;;;;;;;14.05;29.75;96868.13;2071691;28;1452;-64
2022/03/18 04:32:20;;;;;;;;;;;;;;;13.97;29.98;96870.50;2080938;28;1114;-65
2022/03/18 04:33:22;;;;;;;;;;;;;;;13.92;30.18;96873.53;2080400;28;1568;-63
2022/03/18 04:34:24;;;;;;;;;;;;;;;13.82;30.10;96871.72;2080456;28;1531;-63
2022/03/18 04:35:26;;;;;;;;;;;;;;;13.64;29.92;96873.97;2071969;28;1749;-64
2022/03/18 04:36:28;;;;;;;;;;;;;;;13.62;29.78;96866.16;2075327;28;1407;-62
2022/03/18 04:37:29;;;;;;;;;;;;;;;13.30;30.03;96876.50;2079749;28;1496;-65
2022/03/18 04:38:31;;;;;;;;;;;;;;;13.34;31.11;96874.47;2088039;28;1453;-63
2022/03/18 04:39:33;;;;;;;;;;;;;;;13.71;29.89;96876.00;2087971;28;1642;-64
2022/03/18 04:40:34;;;;;;;;;;;;;;;13.66;29.77;96872.88;2079150;28;1673;-63
2022/03/18 04:41:36;;;;;;;;;;;;;;;13.52;30.07;96880.13;2076749;28;1436;-65
2022/03/18 04:42:38;;;;;;;;;;;;;;;13.78;30.43;96873.75;2079361;28;1426;-62
2022/03/18 04:43:40;;;;;;;;;;;;;;;14.21;31.04;96881.00;2079577;28;1823;-60
2022/03/18 04:44:41;;;;;;;;;;;;;;;14.30;29.45;96880.25;2079183;28;1533;-61
2022/03/18 04:45:44;;;;;;;;;;;;;;;14.10;30.46;96871.25;2078524;28;1537;-60
2022/03/18 04:46:48;;;;;;;;;;;;;;;14.88;31.02;96879.25;2079522;28;1738;-60
2022/03/18 04:47:49;;;;;;;;;;;;;;;15.54;30.56;96874.69;2074237;28;1914;-61
2022/03/18 04:48:51;;;;;;;;;;;;;;;16.08;30.24;96875.44;2082609;28;1283;-63
2022/03/18 04:49:53;;;;;;;;;;;;;;;16.56;29.92;96877.47;2078232;28;1504;-61
2022/03/18 04:50:54;;;;;;;;;;;;;;;16.95;29.42;96877.59;2079816;28;1450;-61
2022/03/18 04:51:56;;;;;;;;;;;;;;;17.30;29.17;96877.94;2079065;28;1446;-61
2022/03/18 04:52:57;;;;;;;;;;;;;;;17.62;28.95;96879.47;2080133;28;1103;-61
2022/03/18 04:53:59;;;;;;;;;;;;;;;17.88;29.05;96877.06;2078716;28;1438;-62
2022/03/18 04:55:03;;;;;;;;;;;;;;;18.12;29.08;96881.06;2075289;28;1470;-63
2022/03/18 04:56:05;;;;;;;;;;;;;;;18.33;29.20;96891.50;2079616;28;1400;-63
2022/03/18 04:57:15;;;;;;;;;;;;;;;18.50;29.44;96893.41;2079896;28;1073;-59
2022/03/18 04:58:17;;;;;;;;;;;;;;;18.70;29.06;96885.31;2079795;28;1102;-60
2022/03/18 04:59:19;;;;;;;;;;;;;;;17.22;26.48;96883.09;2075491;28;1298;-60
2022/03/18 05:00:24;;;;;;;;;;;;;;;15.55;26.77;96886.94;2079405;28;1522;-62
2022/03/18 05:01:26;;;;;;;;;;;;;;;14.68;29.82;96896.69;2079670;28;1351;-63
2022/03/18 05:02:29;;;;;;;;;;;;;;;15.39;30.21;96897.94;2079300;28;1130;-61
2022/03/18 05:03:31;;;;;;;;;;;;;;;16.04;29.73;96897.88;2080565;28;1140;-60
2022/03/18 05:04:32;;;;;;;;;;;;;;;16.60;30.01;96895.63;2079752;28;1459;-61
2022/03/18 05:05:34;;;;;;;;;;;;;;;17.11;29.67;96899.13;2079999;28;1150;-60
2022/03/18 05:06:36;;;;;;;;;;;;;;;17.50;29.15;96900.00;2080380;28;1647;-59
2022/03/18 05:07:41;;;;;;;;;;;;;;;17.83;28.92;96905.88;2080379;28;1958;-61
2022/03/18 05:08:43;;;;;;;;;;;;;;;18.10;28.68;96897.16;2079785;28;1676;-60
2022/03/18 05:09:45;;;;;;;;;;;;;;;18.32;28.62;96898.63;2074679;28;1356;-61
2022/03/18 05:10:48;;;;;;;;;;;;;;;18.50;28.51;96908.47;2079898;28;1718;-60
2022/03/18 05:11:50;;;;;;;;;;;;;;;18.65;28.44;96902.53;2079987;28;1579;-60
2022/03/18 05:12:53;;;;;;;;;;;;;;;18.78;28.37;96896.91;2078360;28;1543;-60
2022/03/18 05:13:54;;;;;;;;;;;;;;;18.88;28.61;96897.69;2080403;28;1245;-60
2022/03/18 05:14:56;;;;;;;;;;;;;;;18.99;28.56;96899.31;2080257;28;1292;-60
2022/03/18 05:15:58;;;;;;;;;;;;;;;19.07;28.35;96906.56;2080554;28;1241;-60
2022/03/18 05:16:59;;;;;;;;;;;;;;;19.15;28.42;96903.13;2080161;28;826;-60
2022/03/18 05:18:01;;;;;;;;;;;;;;;19.21;28.60;96899.88;2080024;28;1769;-60
2022/03/18 05:19:03;;;;;;;;;;;;;;;19.27;28.77;96894.81;2080914;28;1046;-60
2022/03/18 05:20:05;;;;;;;;;;;;;;;19.33;28.78;96896.84;2079327;28;1613;-60
2022/03/18 05:21:07;;;;;;;;;;;;;;;19.38;28.75;96899.06;2073772;28;1706;-61
2022/03/18 05:22:08;;;;;;;;;;;;;;;19.42;28.90;96899.59;2080446;28;1737;-60
2022/03/18 05:23:10;;;;;;;;;;;;;;;19.47;28.85;96903.47;2080425;28;1199;-60
2022/03/18 05:24:12;;;;;;;;;;;;;;;19.51;28.84;96894.19;2080392;28;989;-60
2022/03/18 05:25:13;;;;;;;;;;;;;;;19.54;29.00;96893.88;2080260;28;1112;-60
2022/03/18 05:26:15;;;;;;;;;;;;;;;19.58;28.92;96889.09;2080042;28;1014;-60
2022/03/18 05:27:20;;;;;;;;;;;;;;;19.64;28.98;96892.97;2080604;28;1159;-60
2022/03/18 05:28:21;;;;;;;;;;;;;;;19.66;29.21;96897.16;2081066;28;1219;-60
2022/03/18 05:29:25;;;;;;;;;;;;;;;19.69;29.04;96896.84;2080908;28;1302;-60
2022/03/18 05:30:28;;;;;;;;;;;;;;;19.71;29.18;96894.88;2080210;28;1027;-60
2022/03/18 05:31:35;;;;;;;;;;;;;;;19.75;29.17;96892.75;2076629;28;1047;-60
2022/03/18 05:32:37;;;;;;;;;;;;;;;19.78;29.21;96895.13;2079897;28;1143;-61
2022/03/18 05:33:38;;;;;;;;;;;;;;;19.81;29.42;96893.94;2080046;28;1032;-61
2022/03/18 05:34:40;;;;;;;;;;;;;;;19.83;29.44;96897.31;2079878;28;1032;-60
2022/03/18 05:35:41;;;;;;;;;;;;;;;19.86;29.56;96889.00;2079941;28;1100;-61
2022/03/18 05:36:43;;;;;;;;;;;;;;;19.86;29.48;96903.16;2080213;28;1002;-60